createdAt,value
2023-01-23T00:01:22.701Z,1.37
2023-01-23T00:03:49.382Z,1.47
2023-01-23T00:08:48.839Z,1.30
2023-01-23T00:11:21.367Z,1.36
2023-01-23T00:13:48.387Z,1.33
2023-01-23T00:16:19.080Z,1.19
2023-01-23T00:18:46.611Z,1.13
2023-01-23T00:21:16.117Z,1.20
2023-01-23T00:23:50.636Z,1.24
2023-01-23T00:26:23.022Z,1.14
2023-01-23T00:28:50.778Z,1.05
2023-01-23T00:31:25.437Z,1.07
2023-01-23T00:34:01.195Z,1.03
2023-01-23T00:36:35.303Z,1.31
2023-01-23T00:39:03.836Z,1.12
2023-01-23T00:41:30.484Z,1.20
2023-01-23T00:43:57.031Z,1.12
2023-01-23T00:46:24.228Z,1.13
2023-01-23T00:48:51.224Z,1.07
2023-01-23T00:51:18.091Z,1.17
2023-01-23T00:53:44.978Z,1.11
2023-01-23T00:56:12.337Z,1.22
2023-01-23T00:58:40.605Z,1.12
2023-01-23T01:01:07.418Z,1.20
2023-01-23T01:03:34.868Z,1.16
2023-01-23T01:06:01.913Z,1.19
2023-01-23T01:08:29.034Z,1.15
2023-01-23T01:10:55.756Z,1.18
2023-01-23T01:13:23.914Z,1.29
2023-01-23T01:15:51.962Z,1.30
2023-01-23T01:18:19.329Z,1.26
2023-01-23T01:20:46.059Z,1.36
2023-01-23T01:23:13.212Z,1.42
2023-01-23T01:25:40.208Z,1.38
2023-01-23T01:30:41.650Z,1.34
2023-01-23T01:33:08.619Z,1.27
2023-01-23T01:35:35.336Z,1.29
2023-01-23T01:38:01.899Z,1.39
2023-01-23T01:40:35.209Z,1.54
2023-01-23T01:43:08.259Z,1.34
2023-01-23T01:45:59.562Z,1.31
2023-01-23T01:48:32.152Z,1.32
2023-01-23T01:51:00.729Z,1.37
2023-01-23T01:53:30.878Z,1.44
2023-01-23T01:55:58.805Z,1.38
2023-01-23T02:01:16.476Z,1.31
2023-01-23T02:03:45.060Z,1.39
2023-01-23T02:06:12.424Z,1.25
2023-01-23T02:08:52.643Z,1.21
2023-01-23T02:11:19.540Z,1.23
2023-01-23T02:13:46.204Z,1.40
2023-01-23T02:16:40.310Z,1.33
2023-01-23T02:19:37.839Z,1.32
2023-01-23T02:22:14.027Z,1.35
2023-01-23T02:24:51.291Z,1.41
2023-01-23T02:27:17.825Z,1.26
2023-01-23T02:29:46.045Z,1.39
2023-01-23T02:32:12.573Z,1.40
2023-01-23T02:34:39.211Z,1.60
2023-01-23T02:37:08.100Z,1.53
2023-01-23T02:42:10.530Z,1.23
2023-01-23T02:44:37.053Z,1.11
2023-01-23T02:49:40.629Z,1.14
2023-01-23T02:52:07.432Z,1.11
2023-01-23T02:54:34.087Z,1.29
2023-01-23T02:57:00.703Z,1.32
2023-01-23T02:59:45.899Z,1.41
2023-01-23T03:05:02.163Z,1.51
2023-01-23T03:07:28.687Z,1.44
2023-01-23T03:09:55.241Z,1.38
2023-01-23T03:15:10.671Z,1.31
2023-01-23T03:17:37.207Z,1.44
2023-01-23T03:20:06.030Z,1.49
2023-01-23T03:22:32.550Z,1.58
2023-01-23T03:24:59.165Z,1.68
2023-01-23T03:27:25.774Z,1.65
2023-01-23T03:30:10.797Z,1.62
2023-01-23T03:32:38.787Z,1.56
2023-01-23T03:35:07.845Z,1.72
2023-01-23T03:37:34.402Z,1.76
2023-01-23T03:40:19.562Z,1.58
2023-01-23T03:42:46.353Z,1.50
2023-01-23T03:45:13.337Z,1.48
2023-01-23T03:47:39.877Z,1.42
2023-01-23T03:50:07.842Z,1.48
2023-01-23T03:52:35.029Z,1.47
2023-01-23T03:55:01.588Z,1.57
2023-01-23T03:57:28.158Z,1.60
2023-01-23T03:59:55.348Z,1.59
2023-01-23T04:02:21.990Z,1.56
2023-01-23T04:04:48.565Z,1.64
2023-01-23T04:07:15.261Z,1.67
2023-01-23T04:09:41.831Z,1.59
2023-01-23T04:12:08.444Z,1.62
2023-01-23T04:14:37.765Z,1.51
2023-01-23T04:17:06.258Z,1.63
2023-01-23T04:19:33.183Z,1.62
2023-01-23T04:22:00.501Z,1.49
2023-01-23T04:24:27.578Z,1.65
2023-01-23T04:26:54.232Z,1.61
2023-01-23T04:31:52.193Z,1.54
2023-01-23T04:34:18.809Z,1.67
2023-01-23T04:36:45.324Z,1.73
2023-01-23T04:39:11.869Z,1.81
2023-01-23T04:41:38.402Z,1.77
2023-01-23T04:44:23.215Z,1.74
2023-01-23T04:46:53.189Z,1.72
2023-01-23T04:49:22.035Z,1.59
2023-01-23T04:51:50.141Z,1.61
2023-01-23T04:54:18.148Z,1.79
2023-01-23T04:56:45.508Z,1.66
2023-01-23T04:59:12.732Z,1.58
2023-01-23T05:01:39.838Z,1.77
2023-01-23T05:04:06.410Z,1.88
2023-01-23T05:06:33.491Z,1.71
2023-01-23T05:09:00.114Z,1.78
2023-01-23T05:11:26.737Z,1.81
2023-01-23T05:13:53.369Z,1.71
2023-01-23T05:16:20.008Z,1.75
2023-01-23T05:18:46.516Z,1.72
2023-01-23T05:21:13.115Z,1.62
2023-01-23T05:23:39.670Z,1.70
2023-01-23T05:28:37.435Z,1.59
2023-01-23T05:31:04.227Z,1.59
2023-01-23T05:33:30.868Z,1.49
2023-01-23T05:36:01.425Z,1.59
2023-01-23T05:38:28.046Z,1.55
2023-01-23T05:40:54.687Z,1.54
2023-01-23T05:43:21.243Z,1.57
2023-01-23T05:45:47.912Z,1.54
2023-01-23T05:48:15.210Z,1.56
2023-01-23T05:50:41.840Z,1.57
2023-01-23T05:53:08.413Z,1.52
2023-01-23T05:55:35.048Z,1.54
2023-01-23T05:58:01.572Z,1.58
2023-01-23T06:00:28.071Z,1.48
2023-01-23T06:02:54.744Z,1.59
2023-01-23T06:05:21.489Z,1.57
2023-01-23T06:07:48.119Z,1.50
2023-01-23T06:10:15.055Z,1.61
2023-01-23T06:12:41.623Z,1.54
2023-01-23T06:15:08.673Z,1.49
2023-01-23T06:17:35.667Z,1.59
2023-01-23T06:20:02.497Z,1.63
2023-01-23T06:22:31.377Z,1.60
2023-01-23T06:24:58.188Z,1.49
2023-01-23T06:27:24.857Z,1.59
2023-01-23T06:29:51.420Z,1.70
2023-01-23T06:34:49.624Z,1.77
2023-01-23T06:37:16.325Z,1.62
2023-01-23T06:39:42.976Z,1.73
2023-01-23T06:42:10.456Z,1.73
2023-01-23T06:44:37.651Z,1.75
2023-01-23T06:47:05.383Z,1.67
2023-01-23T06:49:32.202Z,1.64
2023-01-23T06:51:58.779Z,1.62
2023-01-23T06:54:25.428Z,1.52
2023-01-23T06:56:52.020Z,1.61
2023-01-23T06:59:18.728Z,1.64
2023-01-23T07:01:45.375Z,1.66
2023-01-23T07:04:11.935Z,1.62
2023-01-23T07:06:38.633Z,1.69
2023-01-23T07:09:05.526Z,2.10
2023-01-23T07:11:32.218Z,2.01
2023-01-23T07:13:58.958Z,1.96
2023-01-23T07:16:25.535Z,1.91
2023-01-23T07:18:52.264Z,1.92
2023-01-23T07:21:18.767Z,1.81
2023-01-23T07:23:45.332Z,1.74
2023-01-23T07:26:12.381Z,1.71
2023-01-23T07:28:39.704Z,1.65
2023-01-23T07:31:06.964Z,1.71
2023-01-23T07:33:33.586Z,1.66
2023-01-23T07:36:00.174Z,1.71
2023-01-23T07:38:26.840Z,1.73
2023-01-23T07:40:53.413Z,1.80
2023-01-23T07:43:19.934Z,1.75
2023-01-23T07:45:46.531Z,1.69
2023-01-23T07:48:13.130Z,1.77
2023-01-23T07:50:39.658Z,1.70
2023-01-23T07:53:06.583Z,1.72
2023-01-23T07:55:33.831Z,1.75
2023-01-23T07:58:00.799Z,1.72
2023-01-23T08:00:29.699Z,1.69
2023-01-23T08:02:56.878Z,1.61
2023-01-23T08:05:23.636Z,1.71
2023-01-23T08:07:53.773Z,1.73
2023-01-23T08:10:24.478Z,1.72
2023-01-23T08:12:51.034Z,1.64
2023-01-23T08:15:17.888Z,1.65
2023-01-23T08:17:44.571Z,1.59
2023-01-23T08:20:11.647Z,1.62
2023-01-23T08:22:40.994Z,1.64
2023-01-23T08:25:11.189Z,1.67
2023-01-23T08:27:38.115Z,1.68
2023-01-23T08:30:06.655Z,1.66
2023-01-23T08:32:36.150Z,1.58
2023-01-23T08:35:04.565Z,1.54
2023-01-23T08:37:31.209Z,1.66
2023-01-23T08:39:58.068Z,1.61
2023-01-23T08:42:24.618Z,1.60
2023-01-23T08:44:51.163Z,1.58
2023-01-23T08:47:17.764Z,1.60
2023-01-23T08:49:44.322Z,1.65
2023-01-23T08:52:10.932Z,1.74
2023-01-23T08:54:37.568Z,1.79
2023-01-23T08:57:04.235Z,1.83
2023-01-23T08:59:30.767Z,1.87
2023-01-23T09:01:57.376Z,1.78
2023-01-23T09:04:24.005Z,1.95
2023-01-23T09:06:50.646Z,2.06
2023-01-23T09:11:50.969Z,2.04
2023-01-23T09:16:50.898Z,1.97
2023-01-23T09:19:17.541Z,1.88
2023-01-23T09:24:22.646Z,1.79
2023-01-23T09:26:49.233Z,1.82
2023-01-23T09:31:54.232Z,1.81
2023-01-23T09:34:20.885Z,1.86
2023-01-23T09:36:47.471Z,1.94
2023-01-23T09:39:14.026Z,1.95
2023-01-23T09:41:41.359Z,1.86
2023-01-23T09:44:19.466Z,1.82
2023-01-23T09:46:57.885Z,1.88
2023-01-23T09:49:28.992Z,1.95
2023-01-23T09:52:01.964Z,2.03
2023-01-23T09:55:13.907Z,2.10
2023-01-23T09:57:48.834Z,2.12
2023-01-23T10:00:18.186Z,2.18
2023-01-23T10:02:45.409Z,2.19
2023-01-23T10:05:17.175Z,2.11
2023-01-23T10:07:49.844Z,2.11
2023-01-23T10:10:37.122Z,2.16
2023-01-23T10:13:16.780Z,2.11
2023-01-23T10:16:33.269Z,2.04
2023-01-23T10:19:19.746Z,2.14
2023-01-23T10:21:59.842Z,2.17
2023-01-23T10:24:54.025Z,2.18
2023-01-23T10:27:21.840Z,2.22
2023-01-23T10:30:27.605Z,2.26
2023-01-23T10:33:00.336Z,2.25
2023-01-23T10:35:36.503Z,2.28
2023-01-23T10:38:27.569Z,2.28
2023-01-23T10:41:12.825Z,2.35
2023-01-23T10:43:40.918Z,2.37
2023-01-23T10:46:13.844Z,2.43
2023-01-23T10:48:47.052Z,2.40
2023-01-23T10:51:43.846Z,2.18
2023-01-23T10:54:19.409Z,2.18
2023-01-23T10:57:01.607Z,2.22
2023-01-23T10:59:51.661Z,2.20
2023-01-23T11:02:20.350Z,2.24
2023-01-23T11:04:51.862Z,2.35
2023-01-23T11:07:27.261Z,2.35
2023-01-23T11:10:00.438Z,2.32
2023-01-23T11:12:32.040Z,2.36
2023-01-23T11:15:14.149Z,2.49
2023-01-23T11:17:42.489Z,2.49
2023-01-23T11:20:24.647Z,2.52
2023-01-23T11:23:00.157Z,2.55
2023-01-23T11:25:40.701Z,2.64
2023-01-23T11:28:35.552Z,2.55
2023-01-23T11:31:21.487Z,2.52
2023-01-23T11:33:57.737Z,2.47
2023-01-23T11:36:36.400Z,2.32
2023-01-23T11:39:36.095Z,2.37
2023-01-23T11:42:03.516Z,2.40
2023-01-23T11:44:38.067Z,2.43
2023-01-23T11:47:44.798Z,2.40
2023-01-23T11:50:29.775Z,2.45
2023-01-23T11:53:16.062Z,2.50
2023-01-23T11:56:18.416Z,2.41
2023-01-23T11:59:09.232Z,2.45
2023-01-23T12:02:03.090Z,2.49
2023-01-23T12:04:44.021Z,2.33
2023-01-23T12:07:17.840Z,2.41
2023-01-23T12:10:09.399Z,2.49
2023-01-23T12:13:04.951Z,2.61
2023-01-23T12:16:03.295Z,2.61
2023-01-23T12:21:37.394Z,2.79
2023-01-23T12:24:17.318Z,2.73
2023-01-23T12:27:00.071Z,2.64
2023-01-23T12:30:10.910Z,2.70
2023-01-23T12:33:02.530Z,2.88
2023-01-23T12:35:50.265Z,2.79
2023-01-23T12:38:37.228Z,2.82
2023-01-23T12:41:20.022Z,2.89
2023-01-23T12:43:59.665Z,2.87
2023-01-23T12:46:34.148Z,2.97
2023-01-23T12:49:25.745Z,2.82
2023-01-23T12:52:25.812Z,2.86
2023-01-23T12:55:17.939Z,2.85
2023-01-23T12:58:00.253Z,2.95
2023-01-23T13:00:40.671Z,3.02
2023-01-23T13:03:15.004Z,2.93
2023-01-23T13:06:16.357Z,3.04
2023-01-23T13:09:00.024Z,2.86
2023-01-23T13:11:42.226Z,3.04
2023-01-23T13:14:25.566Z,3.17
2023-01-23T13:16:57.996Z,3.21
2023-01-23T13:19:45.414Z,3.35
2023-01-23T13:25:13.216Z,3.36
2023-01-23T13:27:58.289Z,3.54
2023-01-23T13:30:31.902Z,3.81
2023-01-23T13:33:01.867Z,3.82
2023-01-23T13:35:53.045Z,3.73
2023-01-23T13:38:22.339Z,3.75
2023-01-23T13:41:18.411Z,3.69
2023-01-23T13:43:50.929Z,3.57
2023-01-23T14:21:49.245Z,3.43
2023-01-23T14:24:23.414Z,3.29
2023-01-23T14:26:53.316Z,3.37
2023-01-23T14:29:24.961Z,3.24
2023-01-23T14:31:52.522Z,3.29
2023-01-23T14:34:22.198Z,3.28
2023-01-23T14:36:53.039Z,3.21
2023-01-23T14:39:26.214Z,3.12
2023-01-23T14:41:55.515Z,2.99
2023-01-23T14:47:05.542Z,3.04
2023-01-23T14:49:36.818Z,3.10
2023-01-23T14:52:06.086Z,3.16
2023-01-23T14:54:34.655Z,3.13
2023-01-23T14:57:05.666Z,3.28
2023-01-23T14:59:38.864Z,3.25
2023-01-23T15:02:31.422Z,3.05
2023-01-23T15:05:13.168Z,3.06
2023-01-23T15:07:45.307Z,3.12
2023-01-23T15:10:22.433Z,3.07
2023-01-23T15:12:53.808Z,3.03
2023-01-23T15:15:22.915Z,3.02
2023-01-23T15:17:50.950Z,2.93
2023-01-23T15:20:40.793Z,2.88
2023-01-23T15:23:20.664Z,2.91
2023-01-23T15:25:57.366Z,2.95
2023-01-23T15:28:40.214Z,2.92
2023-01-23T15:31:24.125Z,2.93
2023-01-23T15:33:51.315Z,2.89
2023-01-23T15:36:27.244Z,2.84
2023-01-23T15:38:55.852Z,2.86
2023-01-23T15:41:43.771Z,2.89
2023-01-23T15:44:15.733Z,2.84
2023-01-23T15:46:42.532Z,2.82
2023-01-23T15:49:23.625Z,2.84
2023-01-23T15:51:51.760Z,2.85
2023-01-23T15:54:34.192Z,2.79
2023-01-23T15:57:07.591Z,2.88
2023-01-23T15:59:35.748Z,2.81
2023-01-23T16:02:02.415Z,2.85
2023-01-23T16:04:29.010Z,2.85
2023-01-23T16:06:55.720Z,2.92
2023-01-23T16:09:28.034Z,3.03
2023-01-23T16:11:54.801Z,2.98
2023-01-23T16:14:21.470Z,2.93
2023-01-23T16:16:48.187Z,2.96
2023-01-23T16:19:14.856Z,2.95
2023-01-23T16:21:47.702Z,2.89
2023-01-23T16:24:24.162Z,2.88
2023-01-23T16:26:52.113Z,2.88
2023-01-23T16:29:30.524Z,2.85
2023-01-23T16:31:59.363Z,2.86
2023-01-23T16:34:26.860Z,2.88
2023-01-23T16:36:56.582Z,2.90
2023-01-23T16:39:26.539Z,3.03
2023-01-23T16:41:56.529Z,3.01
2023-01-23T16:44:26.792Z,2.99
2023-01-23T16:46:53.956Z,2.97
2023-01-23T16:49:21.015Z,3.03
2023-01-23T16:52:06.033Z,3.02
2023-01-23T16:54:32.749Z,2.93
2023-01-23T16:57:01.912Z,3.02
2023-01-23T16:59:34.877Z,3.08
2023-01-23T17:02:08.103Z,2.99
2023-01-23T17:04:34.681Z,2.92
2023-01-23T17:07:01.316Z,3.05
2023-01-23T17:09:27.894Z,2.99
2023-01-23T17:11:56.597Z,2.93
2023-01-23T17:14:28.486Z,2.87
2023-01-23T17:17:02.070Z,2.95
2023-01-23T17:19:36.503Z,3.05
2023-01-23T17:22:05.913Z,3.06
2023-01-23T17:24:32.641Z,2.99
2023-01-23T17:26:59.236Z,3.02
2023-01-23T17:29:26.097Z,3.16
2023-01-23T17:31:53.332Z,3.07
2023-01-23T17:34:24.785Z,3.13
2023-01-23T17:36:53.076Z,3.06
2023-01-23T17:39:20.656Z,3.13
2023-01-23T17:41:47.993Z,3.04
2023-01-23T17:44:14.576Z,3.14
2023-01-23T17:46:41.480Z,3.16
2023-01-23T17:49:27.677Z,3.17
2023-01-23T17:51:55.016Z,3.14
2023-01-23T17:54:21.633Z,3.15
2023-01-23T17:56:48.217Z,3.13
2023-01-23T17:59:14.803Z,3.15
2023-01-23T18:01:41.488Z,3.15
2023-01-23T18:04:16.030Z,3.20
2023-01-23T18:06:42.752Z,3.46
2023-01-23T18:09:09.369Z,3.29
2023-01-23T18:11:38.044Z,3.26
2023-01-23T18:14:28.550Z,3.19
2023-01-23T18:16:55.672Z,3.23
2023-01-23T18:19:25.019Z,3.08
2023-01-23T18:21:56.846Z,3.11
2023-01-23T18:24:30.444Z,3.16
2023-01-23T18:26:58.528Z,3.12
2023-01-23T18:29:33.937Z,3.13
2023-01-23T18:32:19.238Z,3.11
2023-01-23T18:34:45.740Z,3.12
2023-01-23T18:37:29.613Z,3.09
2023-01-23T18:40:20.934Z,3.15
2023-01-23T18:42:56.157Z,3.15
2023-01-23T18:45:27.388Z,3.07
2023-01-23T18:47:55.260Z,3.15
2023-01-23T18:50:27.124Z,3.13
2023-01-23T18:53:17.373Z,3.06
2023-01-23T18:56:14.591Z,3.05
2023-01-23T18:58:43.856Z,3.04
2023-01-23T19:01:34.715Z,2.95
2023-01-23T19:04:01.646Z,3.03
2023-01-23T19:06:33.339Z,3.02
2023-01-23T19:09:00.791Z,3.12
2023-01-23T19:11:39.045Z,3.11
2023-01-23T19:14:40.440Z,3.12
2023-01-23T19:17:36.954Z,3.17
2023-01-23T19:20:22.436Z,5.22
2023-01-23T19:23:16.661Z,4.65
2023-01-23T19:25:47.953Z,3.95
2023-01-23T19:28:15.924Z,3.72
2023-01-23T19:30:43.548Z,3.43
2023-01-23T19:33:16.022Z,3.31
2023-01-23T19:35:44.096Z,3.22
2023-01-23T19:38:10.806Z,3.18
2023-01-23T19:40:37.482Z,3.15
2023-01-23T19:43:14.055Z,3.06
2023-01-23T19:45:41.466Z,3.09
2023-01-23T19:48:09.249Z,3.19
2023-01-23T19:50:35.825Z,3.04
2023-01-23T19:53:03.018Z,3.06
2023-01-23T19:55:32.034Z,3.08
2023-01-23T19:57:59.164Z,3.09
2023-01-23T20:03:02.750Z,3.12
2023-01-23T20:05:29.321Z,3.19
2023-01-23T20:07:55.973Z,3.19
2023-01-23T20:10:22.775Z,3.19
2023-01-23T20:12:52.298Z,3.20
2023-01-23T20:15:21.451Z,3.24
2023-01-23T20:17:48.484Z,3.28
2023-01-23T20:20:15.460Z,3.25
2023-01-23T20:22:43.047Z,3.29
2023-01-23T20:25:12.523Z,3.35
2023-01-23T20:27:40.737Z,3.35
2023-01-23T20:30:12.496Z,3.37
2023-01-23T20:32:39.068Z,3.38
2023-01-23T20:35:05.899Z,3.40
2023-01-23T20:37:32.494Z,3.34
2023-01-23T20:39:59.186Z,3.38
2023-01-23T20:42:25.822Z,3.36
2023-01-23T20:44:52.460Z,3.39
2023-01-23T20:47:19.019Z,3.43
2023-01-23T20:49:45.583Z,3.40
2023-01-23T20:52:30.954Z,3.53
2023-01-23T20:54:57.780Z,3.59
2023-01-23T20:57:44.310Z,3.63
2023-01-23T21:00:11.584Z,3.64
2023-01-23T21:02:38.377Z,3.58
2023-01-23T21:05:05.827Z,3.49
2023-01-23T21:07:33.164Z,3.48
2023-01-23T21:09:59.760Z,3.42
2023-01-23T21:12:26.386Z,3.47
2023-01-23T21:14:52.918Z,3.44
2023-01-23T21:17:19.565Z,3.40
2023-01-23T21:19:47.485Z,3.40
2023-01-23T21:22:14.048Z,3.35
2023-01-23T21:27:14.007Z,3.37
2023-01-23T21:29:40.655Z,3.36
2023-01-23T21:32:07.226Z,3.36
2023-01-23T21:34:34.122Z,3.33
2023-01-23T21:37:00.736Z,3.34
2023-01-23T21:39:27.314Z,3.38
2023-01-23T21:44:30.804Z,3.43
2023-01-23T21:46:57.479Z,3.46
2023-01-23T21:49:24.051Z,3.44
2023-01-23T21:51:50.693Z,3.54
2023-01-23T21:54:17.441Z,3.45
2023-01-23T21:56:43.995Z,3.37
2023-01-23T21:59:11.139Z,3.29
2023-01-23T22:01:42.754Z,3.28
2023-01-23T22:04:11.371Z,3.32
2023-01-23T22:06:39.997Z,3.42
2023-01-23T22:09:07.691Z,3.42
2023-01-23T22:11:34.674Z,3.39
2023-01-23T22:14:01.842Z,3.39
2023-01-23T22:16:46.848Z,3.47
2023-01-23T22:19:15.483Z,3.40
2023-01-23T22:21:43.475Z,3.43
2023-01-23T22:24:13.204Z,3.51
2023-01-23T22:26:39.964Z,3.42
2023-01-23T22:29:07.044Z,3.46
2023-01-23T22:31:33.898Z,3.48
2023-01-23T22:34:00.654Z,3.58
2023-01-23T22:36:27.239Z,3.53
2023-01-23T22:38:54.603Z,3.47
2023-01-23T22:41:22.039Z,3.53
2023-01-23T22:43:53.689Z,3.45
2023-01-23T22:46:20.468Z,3.40
2023-01-23T22:48:47.091Z,3.42
2023-01-23T22:51:17.124Z,3.47
2023-01-23T22:53:44.133Z,3.46
2023-01-23T22:56:11.187Z,3.46
2023-01-23T22:58:37.938Z,3.50
2023-01-23T23:01:05.300Z,3.48
2023-01-23T23:03:33.712Z,3.51
2023-01-23T23:08:36.720Z,3.50
2023-01-23T23:11:11.634Z,3.49
2023-01-23T23:13:39.909Z,3.53
2023-01-23T23:16:09.547Z,3.64
2023-01-23T23:18:39.211Z,3.54
2023-01-23T23:21:08.998Z,3.50
2023-01-23T23:23:36.193Z,3.57
2023-01-23T23:28:39.784Z,3.57
2023-01-23T23:31:08.621Z,3.53
2023-01-23T23:33:35.605Z,3.47
2023-01-23T23:36:02.323Z,3.53
2023-01-23T23:38:28.900Z,3.56
2023-01-23T23:40:55.847Z,3.50
2023-01-23T23:43:22.602Z,3.56
2023-01-23T23:45:53.905Z,3.56
2023-01-23T23:48:21.571Z,3.57
2023-01-23T23:50:48.475Z,3.60
2023-01-23T23:53:15.483Z,3.66
2023-01-23T23:55:42.348Z,3.65
